createdAt,value
2022-10-06T00:00:40.111Z,13.31
2022-10-06T00:01:40.080Z,13.35
2022-10-06T00:02:40.063Z,13.32
2022-10-06T00:03:39.985Z,13.38
2022-10-06T00:04:39.944Z,13.35
2022-10-06T00:05:39.902Z,13.47
2022-10-06T00:06:39.875Z,13.32
2022-10-06T00:07:39.822Z,13.31
2022-10-06T00:08:39.790Z,13.28
2022-10-06T00:09:39.749Z,13.25
2022-10-06T00:10:39.701Z,13.31
2022-10-06T00:11:39.664Z,13.22
2022-10-06T00:12:39.638Z,13.22
2022-10-06T00:13:39.588Z,13.22
2022-10-06T00:14:39.547Z,13.21
2022-10-06T00:15:39.549Z,13.21
2022-10-06T00:16:39.465Z,13.27
2022-10-06T00:17:39.426Z,13.25
2022-10-06T00:18:39.400Z,13.27
2022-10-06T00:19:39.347Z,13.29
2022-10-06T00:20:39.309Z,13.27
2022-10-06T00:21:39.271Z,13.38
2022-10-06T00:22:39.226Z,13.35
2022-10-06T00:23:39.188Z,13.31
2022-10-06T00:24:39.159Z,13.24
2022-10-06T00:25:39.111Z,13.27
2022-10-06T00:26:39.068Z,13.19
2022-10-06T00:27:39.028Z,13.24
2022-10-06T00:28:39.025Z,13.24
2022-10-06T00:29:38.952Z,13.16
2022-10-06T00:30:38.919Z,13.22
2022-10-06T00:31:38.869Z,13.17
2022-10-06T00:32:38.834Z,13.21
2022-10-06T00:33:38.793Z,13.17
2022-10-06T00:34:38.753Z,13.17
2022-10-06T00:35:38.714Z,13.06
2022-10-06T00:36:38.691Z,13.21
2022-10-06T00:37:38.635Z,13.07
2022-10-06T00:38:38.594Z,13.17
2022-10-06T00:39:38.556Z,13.16
2022-10-06T00:40:38.515Z,13.04
2022-10-06T00:41:38.482Z,13.16
2022-10-06T00:42:38.447Z,13.16
2022-10-06T00:43:38.399Z,13.09
2022-10-06T00:44:38.359Z,13.06
2022-10-06T00:45:38.322Z,12.99
2022-10-06T00:46:38.365Z,12.96
2022-10-06T00:47:38.252Z,13.06
2022-10-06T00:48:38.206Z,12.88
2022-10-06T00:49:38.157Z,12.91
2022-10-06T00:50:38.122Z,12.98
2022-10-06T00:51:38.196Z,12.92
2022-10-06T00:52:38.039Z,12.89
2022-10-06T00:53:38.010Z,12.94
2022-10-06T00:54:37.960Z,12.88
2022-10-06T00:55:37.918Z,12.81
2022-10-06T00:56:37.879Z,12.77
2022-10-06T00:57:37.842Z,12.77
2022-10-06T00:58:37.799Z,12.74
2022-10-06T00:59:37.777Z,12.80
2022-10-06T01:00:37.719Z,12.76
2022-10-06T01:01:37.749Z,12.76
2022-10-06T01:02:37.736Z,12.74
2022-10-06T01:03:37.601Z,12.71
2022-10-06T01:04:37.560Z,12.85
2022-10-06T01:05:37.534Z,12.88
2022-10-06T01:06:37.481Z,12.77
2022-10-06T01:07:37.442Z,12.77
2022-10-06T01:08:37.402Z,12.80
2022-10-06T01:09:37.364Z,12.77
2022-10-06T01:10:37.322Z,12.79
2022-10-06T01:11:37.296Z,12.81
2022-10-06T01:12:37.241Z,12.80
2022-10-06T01:13:37.205Z,12.77
2022-10-06T01:14:37.163Z,12.80
2022-10-06T01:15:37.161Z,12.81
2022-10-06T01:16:37.083Z,12.69
2022-10-06T01:17:37.063Z,12.80
2022-10-06T01:18:37.004Z,12.77
2022-10-06T01:19:36.963Z,12.73
2022-10-06T01:20:36.929Z,12.51
2022-10-06T01:21:36.892Z,12.52
2022-10-06T01:22:36.843Z,12.54
2022-10-06T01:23:36.821Z,12.44
2022-10-06T01:24:36.765Z,12.49
2022-10-06T01:25:36.725Z,12.36
2022-10-06T01:26:36.685Z,12.34
2022-10-06T01:27:36.647Z,12.29
2022-10-06T01:28:36.660Z,12.38
2022-10-06T01:29:36.577Z,12.30
2022-10-06T01:30:36.525Z,12.33
2022-10-06T01:31:36.507Z,12.29
2022-10-06T01:32:36.446Z,12.12
2022-10-06T01:33:36.410Z,12.13
2022-10-06T01:34:36.368Z,12.13
2022-10-06T01:35:36.336Z,12.15
2022-10-06T01:36:36.284Z,12.21
2022-10-06T01:37:36.246Z,12.01
2022-10-06T01:38:36.205Z,12.05
2022-10-06T01:39:36.166Z,12.05
2022-10-06T01:40:36.126Z,12.07
2022-10-06T01:41:36.098Z,12.15
2022-10-06T01:42:36.043Z,12.12
2022-10-06T01:43:36.004Z,12.18
2022-10-06T01:44:35.971Z,12.23
2022-10-06T01:45:35.938Z,12.26
2022-10-06T01:46:35.926Z,12.23
2022-10-06T01:47:35.859Z,12.25
2022-10-06T01:48:35.816Z,12.25
2022-10-06T01:49:35.764Z,12.21
2022-10-06T01:50:35.724Z,12.21
2022-10-06T01:51:35.689Z,12.19
2022-10-06T01:52:35.652Z,12.12
2022-10-06T01:53:35.616Z,12.07
2022-10-06T01:54:35.564Z,12.13
2022-10-06T01:55:35.523Z,12.11
2022-10-06T01:56:35.486Z,12.07
2022-10-06T01:57:35.444Z,11.98
2022-10-06T01:58:35.404Z,12.03
2022-10-06T01:59:35.370Z,12.05
2022-10-06T02:00:35.336Z,12.08
2022-10-06T02:01:35.346Z,12.04
2022-10-06T02:02:35.245Z,12.01
2022-10-06T02:03:35.204Z,12.12
2022-10-06T02:04:35.165Z,12.16
2022-10-06T02:05:35.129Z,12.22
2022-10-06T02:06:35.195Z,12.31
2022-10-06T02:07:35.043Z,12.36
2022-10-06T02:08:35.003Z,12.46
2022-10-06T02:09:35.030Z,12.40
2022-10-06T02:10:35.159Z,12.41
2022-10-06T02:11:34.883Z,12.43
2022-10-06T02:12:34.883Z,12.38
2022-10-06T02:13:34.807Z,12.36
2022-10-06T02:14:34.778Z,12.34
2022-10-06T02:15:34.787Z,12.36
2022-10-06T02:16:34.684Z,12.44
2022-10-06T02:17:34.644Z,12.34
2022-10-06T02:18:34.615Z,12.31
2022-10-06T02:19:34.563Z,12.23
2022-10-06T02:20:34.528Z,12.26
2022-10-06T02:21:34.480Z,12.15
2022-10-06T02:22:34.443Z,12.16
2022-10-06T02:23:34.402Z,12.16
2022-10-06T02:24:34.375Z,12.12
2022-10-06T02:25:34.320Z,12.12
2022-10-06T02:26:34.289Z,12.11
2022-10-06T02:27:34.239Z,12.16
2022-10-06T02:28:34.588Z,12.04
2022-10-06T02:29:34.159Z,12.12
2022-10-06T02:30:34.135Z,12.12
2022-10-06T02:31:34.107Z,12.23
2022-10-06T02:32:34.039Z,12.21
2022-10-06T02:33:33.997Z,12.26
2022-10-06T02:34:33.962Z,12.26
2022-10-06T02:35:33.919Z,12.25
2022-10-06T02:36:33.892Z,12.19
2022-10-06T02:37:33.840Z,12.23
2022-10-06T02:38:33.799Z,12.21
2022-10-06T02:39:33.757Z,12.30
2022-10-06T02:40:33.719Z,12.30
2022-10-06T02:41:33.680Z,12.33
2022-10-06T02:42:33.653Z,12.23
2022-10-06T02:43:33.600Z,12.33
2022-10-06T02:44:33.559Z,12.30
2022-10-06T02:45:33.597Z,12.37
2022-10-06T02:46:42.530Z,12.44
2022-10-06T02:47:33.437Z,12.48
2022-10-06T02:48:33.411Z,12.46
2022-10-06T02:49:33.357Z,12.59
2022-10-06T02:50:33.319Z,12.67
2022-10-06T02:51:33.277Z,12.70
2022-10-06T02:52:33.239Z,12.73
2022-10-06T02:53:33.197Z,12.69
2022-10-06T02:54:33.220Z,12.66
2022-10-06T02:55:33.116Z,12.63
2022-10-06T02:56:33.076Z,12.62
2022-10-06T02:57:33.039Z,12.67
2022-10-06T02:58:33.027Z,12.62
2022-10-06T02:59:32.955Z,12.66
2022-10-06T03:00:32.992Z,12.63
2022-10-06T03:01:32.912Z,12.63
2022-10-06T03:02:32.932Z,12.70
2022-10-06T03:03:32.797Z,12.67
2022-10-06T03:04:32.756Z,12.69
2022-10-06T03:05:32.715Z,12.63
2022-10-06T03:06:32.685Z,12.58
2022-10-06T03:07:32.633Z,12.70
2022-10-06T03:08:32.715Z,12.59
2022-10-06T03:09:32.581Z,12.66
2022-10-06T03:10:32.517Z,12.61
2022-10-06T03:11:32.492Z,12.55
2022-10-06T03:12:32.441Z,12.56
2022-10-06T03:13:32.396Z,12.51
2022-10-06T03:14:32.360Z,12.55
2022-10-06T03:15:32.315Z,12.54
2022-10-06T03:16:32.396Z,12.43
2022-10-06T03:17:32.248Z,12.48
2022-10-06T03:18:32.571Z,12.44
2022-10-06T03:19:32.154Z,12.48
2022-10-06T03:20:32.115Z,12.37
2022-10-06T03:21:32.081Z,12.40
2022-10-06T03:22:32.049Z,12.43
2022-10-06T03:23:31.995Z,12.40
2022-10-06T03:24:31.966Z,12.30
2022-10-06T03:25:31.914Z,12.30
2022-10-06T03:26:31.889Z,12.41
2022-10-06T03:27:31.842Z,12.25
2022-10-06T03:28:32.443Z,12.31
2022-10-06T03:29:31.754Z,12.31
2022-10-06T03:30:31.722Z,12.22
2022-10-06T03:31:31.714Z,12.15
2022-10-06T03:32:31.634Z,12.22
2022-10-06T03:33:31.599Z,12.23
2022-10-06T03:34:31.566Z,12.11
2022-10-06T03:35:31.517Z,12.21
2022-10-06T03:36:31.472Z,12.23
2022-10-06T03:37:31.432Z,12.21
2022-10-06T03:38:31.745Z,12.33
2022-10-06T03:39:31.357Z,12.36
2022-10-06T03:40:31.326Z,12.31
2022-10-06T03:41:31.273Z,12.25
2022-10-06T03:42:31.232Z,12.22
2022-10-06T03:43:31.189Z,12.21
2022-10-06T03:44:31.151Z,12.21
2022-10-06T03:45:31.109Z,12.08
2022-10-06T03:46:31.111Z,12.22
2022-10-06T03:47:31.029Z,12.19
2022-10-06T03:48:31.528Z,12.13
2022-10-06T03:49:30.960Z,12.19
2022-10-06T03:50:30.914Z,12.25
2022-10-06T03:51:30.872Z,12.15
2022-10-06T03:52:30.831Z,12.19
2022-10-06T03:53:30.789Z,12.23
2022-10-06T03:54:30.762Z,12.15
2022-10-06T03:55:30.709Z,12.15
2022-10-06T03:56:30.669Z,12.03
2022-10-06T03:57:30.628Z,12.11
2022-10-06T03:58:31.005Z,11.88
2022-10-06T03:59:30.564Z,11.93
2022-10-06T04:00:30.518Z,11.96
2022-10-06T04:01:30.504Z,12.01
2022-10-06T04:02:30.510Z,12.03
2022-10-06T04:03:30.396Z,11.98
2022-10-06T04:04:30.348Z,12.00
2022-10-06T04:05:30.304Z,12.04
2022-10-06T04:06:30.274Z,12.04
2022-10-06T04:07:30.224Z,12.15
2022-10-06T04:08:30.610Z,12.11
2022-10-06T04:09:30.142Z,12.12
2022-10-06T04:10:30.106Z,12.03
2022-10-06T04:11:30.061Z,12.05
2022-10-06T04:12:30.036Z,11.93
2022-10-06T04:13:29.982Z,11.93
2022-10-06T04:14:29.956Z,11.93
2022-10-06T04:15:29.904Z,11.90
2022-10-06T04:16:29.903Z,12.01
2022-10-06T04:17:29.830Z,11.88
2022-10-06T04:18:30.039Z,11.96
2022-10-06T04:19:29.747Z,11.94
2022-10-06T04:20:29.700Z,11.78
2022-10-06T04:21:29.662Z,11.79
2022-10-06T04:22:29.620Z,11.78
2022-10-06T04:23:29.591Z,11.77
2022-10-06T04:24:29.538Z,11.74
2022-10-06T04:25:29.499Z,11.81
2022-10-06T04:26:29.463Z,11.85
2022-10-06T04:27:29.418Z,11.85
2022-10-06T04:28:29.647Z,11.84
2022-10-06T04:29:29.336Z,11.82
2022-10-06T04:30:29.303Z,11.72
2022-10-06T04:31:29.333Z,11.84
2022-10-06T04:32:29.217Z,11.88
2022-10-06T04:33:29.183Z,11.78
2022-10-06T04:34:29.145Z,11.87
2022-10-06T04:35:29.095Z,11.98
2022-10-06T04:36:29.056Z,11.85
2022-10-06T04:37:29.019Z,11.90
2022-10-06T04:38:29.309Z,11.85
2022-10-06T04:39:28.946Z,11.93
2022-10-06T04:40:28.891Z,11.93
2022-10-06T04:41:28.850Z,11.88
2022-10-06T04:42:33.946Z,11.94
2022-10-06T04:43:28.769Z,11.88
2022-10-06T04:44:28.729Z,11.90
2022-10-06T04:45:28.746Z,11.81
2022-10-06T04:46:44.968Z,11.74
2022-10-06T04:47:28.607Z,11.78
2022-10-06T04:48:28.878Z,11.77
2022-10-06T04:49:28.529Z,11.77
2022-10-06T04:50:28.487Z,11.72
2022-10-06T04:51:28.455Z,11.72
2022-10-06T04:52:28.505Z,11.79
2022-10-06T04:53:28.365Z,11.75
2022-10-06T04:54:33.389Z,11.77
2022-10-06T04:55:28.282Z,11.74
2022-10-06T04:56:28.245Z,11.64
2022-10-06T04:57:28.216Z,11.59
2022-10-06T04:58:28.535Z,11.63
2022-10-06T04:59:28.121Z,11.54
2022-10-06T05:00:28.082Z,11.62
2022-10-06T05:01:28.086Z,11.54
2022-10-06T05:02:28.028Z,11.59
2022-10-06T05:03:27.970Z,11.57
2022-10-06T05:04:27.934Z,11.46
2022-10-06T05:05:27.878Z,11.45
2022-10-06T05:06:27.839Z,11.35
2022-10-06T05:07:27.795Z,11.35
2022-10-06T05:08:28.265Z,11.36
2022-10-06T05:09:27.734Z,11.49
2022-10-06T05:10:27.674Z,11.42
2022-10-06T05:11:27.635Z,11.45
2022-10-06T05:12:27.595Z,11.41
2022-10-06T05:13:27.561Z,11.42
2022-10-06T05:14:27.512Z,11.41
2022-10-06T05:15:27.491Z,11.39
2022-10-06T05:16:27.488Z,11.46
2022-10-06T05:17:27.393Z,11.33
2022-10-06T05:18:27.759Z,11.39
2022-10-06T05:19:27.321Z,11.38
2022-10-06T05:20:27.269Z,11.21
2022-10-06T05:21:27.230Z,11.24
2022-10-06T05:22:27.187Z,11.06
2022-10-06T05:23:27.168Z,11.23
2022-10-06T05:24:27.113Z,11.03
2022-10-06T05:25:27.112Z,11.19
2022-10-06T05:26:27.030Z,11.28
2022-10-06T05:27:26.983Z,11.12
2022-10-06T05:28:27.534Z,11.08
2022-10-06T05:29:26.907Z,11.06
2022-10-06T05:30:26.862Z,10.87
2022-10-06T05:31:26.901Z,10.83
2022-10-06T05:32:26.783Z,10.83
2022-10-06T05:33:26.739Z,10.72
2022-10-06T05:34:26.705Z,10.75
2022-10-06T05:35:26.658Z,10.60
2022-10-06T05:36:26.618Z,10.58
2022-10-06T05:37:26.591Z,10.49
2022-10-06T05:38:27.072Z,10.49
2022-10-06T05:39:26.500Z,10.52
2022-10-06T05:40:26.456Z,10.57
2022-10-06T05:41:26.416Z,10.46
2022-10-06T05:42:29.691Z,10.42
2022-10-06T05:43:26.347Z,10.28
2022-10-06T05:44:26.290Z,10.32
2022-10-06T05:45:26.252Z,10.42
2022-10-06T05:46:26.210Z,10.36
2022-10-06T05:47:26.170Z,10.36
2022-10-06T05:48:26.661Z,10.34
2022-10-06T05:49:26.100Z,10.34
2022-10-06T05:50:26.045Z,10.34
2022-10-06T05:51:30.294Z,10.32
2022-10-06T05:52:25.964Z,10.36
2022-10-06T05:53:25.926Z,10.24
2022-10-06T05:54:25.884Z,10.25
2022-10-06T05:55:25.850Z,10.34
2022-10-06T05:56:25.806Z,10.24
2022-10-06T05:57:25.758Z,10.26
2022-10-06T05:58:25.719Z,10.31
2022-10-06T05:59:25.681Z,10.32
2022-10-06T06:00:25.637Z,10.18
2022-10-06T06:01:25.763Z,10.31
2022-10-06T06:02:25.613Z,10.18
2022-10-06T06:03:25.517Z,10.14
2022-10-06T06:04:25.474Z,10.28
2022-10-06T06:05:25.437Z,10.34
2022-10-06T06:06:25.398Z,10.38
2022-10-06T06:07:25.387Z,10.24
2022-10-06T06:08:25.324Z,10.47
2022-10-06T06:09:25.271Z,10.43
2022-10-06T06:10:25.228Z,10.49
2022-10-06T06:11:25.190Z,10.47
2022-10-06T06:12:25.154Z,10.57
2022-10-06T06:13:25.120Z,10.68
2022-10-06T06:14:25.066Z,10.70
2022-10-06T06:15:25.024Z,10.72
2022-10-06T06:16:25.019Z,10.73
2022-10-06T06:17:24.963Z,10.81
2022-10-06T06:18:24.901Z,10.87
2022-10-06T06:19:28.944Z,10.87
2022-10-06T06:20:24.855Z,11.01
2022-10-06T06:21:24.779Z,11.54
2022-10-06T06:22:24.738Z,12.01
2022-10-06T06:23:24.706Z,12.41
2022-10-06T06:24:24.666Z,12.94
2022-10-06T06:25:24.617Z,13.39
2022-10-06T06:26:24.575Z,13.76
2022-10-06T06:27:24.536Z,14.02
2022-10-06T06:28:24.548Z,14.01
2022-10-06T06:29:24.466Z,13.96
2022-10-06T06:30:24.417Z,13.83
2022-10-06T06:31:24.399Z,13.88
2022-10-06T06:32:24.334Z,13.87
2022-10-06T06:33:24.300Z,14.13
2022-10-06T06:34:24.254Z,14.42
2022-10-06T06:35:24.227Z,14.64
2022-10-06T06:36:24.174Z,14.94
2022-10-06T06:37:24.140Z,14.94
2022-10-06T06:38:24.100Z,14.64
2022-10-06T06:39:24.059Z,14.79
2022-10-06T06:40:24.015Z,15.16
2022-10-06T06:41:23.992Z,15.11
2022-10-06T06:42:23.949Z,15.33
2022-10-06T06:43:23.904Z,15.52
2022-10-06T06:44:23.864Z,15.62
2022-10-06T06:45:23.823Z,15.74
2022-10-06T06:46:23.974Z,15.88
2022-10-06T06:47:25.931Z,15.89
2022-10-06T06:48:23.716Z,15.77
2022-10-06T06:49:23.675Z,15.85
2022-10-06T06:50:23.639Z,15.91
2022-10-06T06:51:23.592Z,15.95
2022-10-06T06:52:23.553Z,15.95
2022-10-06T06:53:23.534Z,16.16
2022-10-06T06:54:23.476Z,16.11
2022-10-06T06:55:23.444Z,16.34
2022-10-06T06:56:23.399Z,16.45
2022-10-06T06:57:23.364Z,16.44
2022-10-06T06:58:23.326Z,16.54
2022-10-06T06:59:23.301Z,16.80
2022-10-06T07:00:23.357Z,17.15
2022-10-06T07:01:23.269Z,17.18
2022-10-06T07:02:23.204Z,17.18
2022-10-06T07:03:44.930Z,17.46
2022-10-06T07:04:23.114Z,17.32
2022-10-06T07:05:23.080Z,17.40
2022-10-06T07:06:27.100Z,17.74
2022-10-06T07:07:22.993Z,17.70
2022-10-06T07:08:22.956Z,17.62
2022-10-06T07:09:22.923Z,17.35
2022-10-06T07:10:22.895Z,17.21
2022-10-06T07:11:22.848Z,17.14
2022-10-06T07:12:22.813Z,17.21
2022-10-06T07:13:25.609Z,17.27
2022-10-06T07:14:22.746Z,17.21
2022-10-06T07:15:22.706Z,17.02
2022-10-06T07:16:22.680Z,17.07
2022-10-06T07:17:22.635Z,17.49
2022-10-06T07:18:22.613Z,17.39
2022-10-06T07:19:24.828Z,17.70
2022-10-06T07:20:22.526Z,17.94
2022-10-06T07:21:22.494Z,18.05
2022-10-06T07:22:22.464Z,18.28
2022-10-06T07:23:22.417Z,18.11
2022-10-06T07:24:22.381Z,18.46
2022-10-06T07:25:25.756Z,18.28
2022-10-06T07:26:22.313Z,18.17
2022-10-06T07:27:22.277Z,18.16
2022-10-06T07:28:22.325Z,18.14
2022-10-06T07:29:22.212Z,17.99
2022-10-06T07:30:22.171Z,17.84
2022-10-06T07:31:22.216Z,17.84
2022-10-06T07:32:22.136Z,17.81
2022-10-06T07:33:22.078Z,17.96
2022-10-06T07:34:22.031Z,18.13
2022-10-06T07:35:21.999Z,18.11
2022-10-06T07:36:21.976Z,18.17
2022-10-06T07:37:21.929Z,18.25
2022-10-06T07:38:21.903Z,18.09
2022-10-06T07:39:21.860Z,17.83
2022-10-06T07:40:21.824Z,18.20
2022-10-06T07:41:21.789Z,18.20
2022-10-06T07:42:21.764Z,18.41
2022-10-06T07:43:21.729Z,18.50
2022-10-06T07:44:21.684Z,18.44
2022-10-06T07:45:21.652Z,18.49
2022-10-06T07:46:21.662Z,18.54
2022-10-06T07:47:21.584Z,18.64
2022-10-06T07:48:21.564Z,18.72
2022-10-06T07:49:21.515Z,18.78
2022-10-06T07:50:21.481Z,18.90
2022-10-06T07:51:21.455Z,18.97
2022-10-06T07:52:21.411Z,19.10
2022-10-06T07:53:21.379Z,19.28
2022-10-06T07:54:26.504Z,18.96
2022-10-06T07:55:21.312Z,18.93
2022-10-06T07:56:21.279Z,18.76
2022-10-06T07:57:21.244Z,18.65
2022-10-06T07:58:21.208Z,18.66
2022-10-06T07:59:21.175Z,18.76
2022-10-06T08:00:21.207Z,18.89
2022-10-06T08:01:21.149Z,18.94
2022-10-06T08:02:21.104Z,19.30
2022-10-06T08:03:21.139Z,19.62
2022-10-06T08:04:21.004Z,19.76
2022-10-06T08:05:20.973Z,20.00
2022-10-06T08:06:20.946Z,20.31
2022-10-06T08:07:20.906Z,20.56
2022-10-06T08:08:20.871Z,20.64
2022-10-06T08:09:20.838Z,20.61
2022-10-06T08:10:20.813Z,20.25
2022-10-06T08:11:20.771Z,19.89
2022-10-06T08:12:20.747Z,20.08
2022-10-06T08:13:20.704Z,20.44
2022-10-06T08:14:20.667Z,20.50
2022-10-06T08:15:20.643Z,20.20
2022-10-06T08:16:20.670Z,19.95
2022-10-06T08:17:20.570Z,19.90
2022-10-06T08:18:44.411Z,19.50
2022-10-06T08:19:20.505Z,19.58
2022-10-06T08:20:20.472Z,19.70
2022-10-06T08:21:20.437Z,19.97
2022-10-06T08:22:20.401Z,19.89
2022-10-06T08:23:20.369Z,19.82
2022-10-06T08:24:20.352Z,20.02
2022-10-06T08:25:20.303Z,20.30
2022-10-06T08:26:20.269Z,20.30
2022-10-06T08:27:20.246Z,20.31
2022-10-06T08:28:20.250Z,20.27
2022-10-06T08:29:20.183Z,19.97
2022-10-06T08:30:20.137Z,19.53
2022-10-06T08:31:20.179Z,19.46
2022-10-06T08:32:20.072Z,19.23
2022-10-06T08:33:21.409Z,19.17
2022-10-06T08:34:20.013Z,19.09
2022-10-06T08:35:19.982Z,19.34
2022-10-06T08:36:19.954Z,19.62
2022-10-06T08:37:20.572Z,19.94
2022-10-06T08:38:19.875Z,20.26
2022-10-06T08:39:19.843Z,20.58
2022-10-06T08:40:19.807Z,20.79
2022-10-06T08:41:19.787Z,20.75
2022-10-06T08:42:19.742Z,20.90
2022-10-06T08:43:19.711Z,20.33
2022-10-06T08:44:19.757Z,20.31
2022-10-06T08:45:19.647Z,20.15
2022-10-06T08:46:22.367Z,20.02
2022-10-06T08:47:28.642Z,19.83
2022-10-06T08:48:19.546Z,19.82
2022-10-06T08:49:19.578Z,19.75
2022-10-06T08:50:19.479Z,19.83
2022-10-06T08:51:19.488Z,19.68
2022-10-06T08:52:19.415Z,19.35
2022-10-06T08:53:19.395Z,19.15
2022-10-06T08:54:19.349Z,19.35
2022-10-06T08:55:19.316Z,19.46
2022-10-06T08:56:19.282Z,19.28
2022-10-06T08:57:19.295Z,19.35
2022-10-06T08:58:20.140Z,19.46
2022-10-06T08:59:20.085Z,19.58
2022-10-06T09:00:22.046Z,19.42
2022-10-06T09:01:19.144Z,19.45
2022-10-06T09:02:19.125Z,19.46
2022-10-06T09:03:19.053Z,19.52
2022-10-06T09:04:19.019Z,19.97
2022-10-06T09:05:18.999Z,20.50
2022-10-06T09:06:18.967Z,20.61
2022-10-06T09:07:18.923Z,20.51
2022-10-06T09:08:18.930Z,20.51
2022-10-06T09:09:18.856Z,20.87
2022-10-06T09:10:18.908Z,20.85
2022-10-06T09:11:18.802Z,20.68
2022-10-06T09:12:18.755Z,20.63
2022-10-06T09:13:21.927Z,20.10
2022-10-06T09:14:18.692Z,20.20
2022-10-06T09:15:18.660Z,20.25
2022-10-06T09:16:18.659Z,20.37
2022-10-06T09:17:18.613Z,20.00
2022-10-06T09:18:18.561Z,20.16
2022-10-06T09:19:18.529Z,20.35
2022-10-06T09:20:18.527Z,20.25
2022-10-06T09:21:18.474Z,20.33
2022-10-06T09:22:18.448Z,20.42
2022-10-06T09:23:18.403Z,20.79
2022-10-06T09:24:18.398Z,21.12
2022-10-06T09:25:18.335Z,21.56
2022-10-06T09:26:18.299Z,21.90
2022-10-06T09:27:18.291Z,21.93
2022-10-06T09:28:18.264Z,22.20
2022-10-06T09:29:18.205Z,21.61
2022-10-06T09:30:18.203Z,21.24
2022-10-06T09:31:18.166Z,21.38
2022-10-06T09:32:18.117Z,21.48
2022-10-06T09:33:18.084Z,21.73
2022-10-06T09:34:18.041Z,21.83
2022-10-06T09:35:18.013Z,22.23
2022-10-06T09:36:17.977Z,22.49
2022-10-06T09:37:17.957Z,22.35
2022-10-06T09:38:17.913Z,22.17
2022-10-06T09:39:17.882Z,22.05
2022-10-06T09:40:17.856Z,22.19
2022-10-06T09:41:17.832Z,21.90
2022-10-06T09:42:17.786Z,21.46
2022-10-06T09:43:17.756Z,21.45
2022-10-06T09:44:17.723Z,21.26
2022-10-06T09:45:17.701Z,20.78
2022-10-06T09:46:17.669Z,20.98
2022-10-06T09:47:17.627Z,21.27
2022-10-06T09:48:19.018Z,21.03
2022-10-06T09:49:17.563Z,20.26
2022-10-06T09:50:17.764Z,20.51
2022-10-06T09:51:17.503Z,20.56
2022-10-06T09:52:17.466Z,20.57
2022-10-06T09:53:17.433Z,20.42
2022-10-06T09:54:17.401Z,20.63
2022-10-06T09:55:17.380Z,20.94
2022-10-06T09:56:17.337Z,21.31
2022-10-06T09:57:17.307Z,21.28
2022-10-06T09:58:17.271Z,20.44
2022-10-06T09:59:17.238Z,19.40
2022-10-06T10:00:17.218Z,19.64
2022-10-06T10:01:17.220Z,19.82
2022-10-06T10:02:17.148Z,19.35
2022-10-06T10:03:17.199Z,19.30
2022-10-06T10:04:21.540Z,19.46
2022-10-06T10:05:17.043Z,19.83
2022-10-06T10:06:17.019Z,19.86
2022-10-06T10:07:16.981Z,20.07
2022-10-06T10:08:16.945Z,20.10
2022-10-06T10:09:19.058Z,20.40
2022-10-06T10:10:16.877Z,20.16
2022-10-06T10:11:16.879Z,20.13
2022-10-06T10:12:16.833Z,20.23
2022-10-06T10:13:16.780Z,20.53
2022-10-06T10:14:16.753Z,20.96
2022-10-06T10:15:16.713Z,21.19
2022-10-06T10:16:16.753Z,21.00
2022-10-06T10:17:16.657Z,20.82
2022-10-06T10:18:16.614Z,21.01
2022-10-06T10:19:16.582Z,20.91
2022-10-06T10:20:16.554Z,20.83
2022-10-06T10:21:16.516Z,20.82
2022-10-06T10:22:16.484Z,20.76
2022-10-06T10:23:16.463Z,20.93
2022-10-06T10:24:16.417Z,20.78
2022-10-06T10:25:16.385Z,20.54
2022-10-06T10:26:16.352Z,20.90
2022-10-06T10:27:16.322Z,21.28
2022-10-06T10:28:16.325Z,21.63
2022-10-06T10:29:16.265Z,21.64
2022-10-06T10:30:16.221Z,21.85
2022-10-06T10:31:16.237Z,21.67
2022-10-06T10:32:16.157Z,21.22
2022-10-06T10:33:16.148Z,20.94
2022-10-06T10:34:26.018Z,20.83
2022-10-06T10:35:16.070Z,20.69
2022-10-06T10:36:16.029Z,20.40
2022-10-06T10:37:15.995Z,20.76
2022-10-06T10:38:15.963Z,20.94
2022-10-06T10:39:15.931Z,20.81
2022-10-06T10:40:15.911Z,20.87
2022-10-06T10:41:15.867Z,20.96
2022-10-06T10:42:15.837Z,21.05
2022-10-06T10:43:15.804Z,21.01
2022-10-06T10:44:15.772Z,20.93
2022-10-06T10:45:15.740Z,21.08
2022-10-06T10:46:15.767Z,20.91
2022-10-06T10:47:15.673Z,20.97
2022-10-06T10:48:15.643Z,21.09
2022-10-06T10:49:15.610Z,21.11
2022-10-06T10:50:15.579Z,21.13
2022-10-06T10:51:15.558Z,21.46
2022-10-06T10:52:15.515Z,21.46
2022-10-06T10:53:15.560Z,21.01
2022-10-06T10:54:15.461Z,21.34
2022-10-06T10:55:15.421Z,21.12
2022-10-06T10:56:15.386Z,20.87
2022-10-06T10:57:15.369Z,20.79
2022-10-06T10:58:15.323Z,20.64
2022-10-06T10:59:15.288Z,20.91
2022-10-06T11:00:15.258Z,20.94
2022-10-06T11:01:15.242Z,20.78
2022-10-06T11:02:15.252Z,20.81
2022-10-06T11:03:15.160Z,20.78
2022-10-06T11:04:15.130Z,20.98
2022-10-06T11:05:15.095Z,21.00
2022-10-06T11:06:15.076Z,21.06
2022-10-06T11:07:15.044Z,20.96
2022-10-06T11:08:15.010Z,21.18
2022-10-06T11:09:14.967Z,21.05
2022-10-06T11:10:14.943Z,20.75
2022-10-06T11:11:14.907Z,20.88
2022-10-06T11:12:14.883Z,20.87
2022-10-06T11:13:14.840Z,20.73
2022-10-06T11:14:14.810Z,20.51
2022-10-06T11:15:14.780Z,20.37
2022-10-06T11:16:14.813Z,20.31
2022-10-06T11:17:14.713Z,20.22
2022-10-06T11:18:17.136Z,20.00
2022-10-06T11:19:14.649Z,19.82
2022-10-06T11:20:14.622Z,19.40
2022-10-06T11:21:14.582Z,19.46
2022-10-06T11:22:14.551Z,19.31
2022-10-06T11:23:14.518Z,19.43
2022-10-06T11:24:14.500Z,19.47
2022-10-06T11:25:14.457Z,19.60
2022-10-06T11:26:14.486Z,19.55
2022-10-06T11:27:14.396Z,19.72
2022-10-06T11:28:14.387Z,19.80
2022-10-06T11:29:14.321Z,19.78
2022-10-06T11:30:14.287Z,19.83
2022-10-06T11:31:16.682Z,19.97
2022-10-06T11:32:14.236Z,20.30
2022-10-06T11:33:14.191Z,20.23
2022-10-06T11:34:14.164Z,20.23
2022-10-06T11:35:14.126Z,20.25
2022-10-06T11:36:14.092Z,20.26
2022-10-06T11:37:14.062Z,20.27
2022-10-06T11:38:14.037Z,20.33
2022-10-06T11:39:13.994Z,20.17
2022-10-06T11:40:13.980Z,20.12
2022-10-06T11:41:13.932Z,20.15
2022-10-06T11:42:13.899Z,20.20
2022-10-06T11:43:13.872Z,20.20
2022-10-06T11:44:13.872Z,20.27
2022-10-06T11:45:13.803Z,20.33
2022-10-06T11:46:13.806Z,20.50
2022-10-06T11:47:13.737Z,20.66
2022-10-06T11:48:13.839Z,20.93
2022-10-06T11:49:13.670Z,20.64
2022-10-06T11:50:13.634Z,20.46
2022-10-06T11:51:13.602Z,20.22
2022-10-06T11:52:13.572Z,20.34
2022-10-06T11:53:13.552Z,20.07
2022-10-06T11:54:13.505Z,20.15
2022-10-06T11:55:13.474Z,20.02
2022-10-06T11:56:13.460Z,19.98
2022-10-06T11:57:13.455Z,20.10
2022-10-06T11:58:30.243Z,20.16
2022-10-06T11:59:13.371Z,20.23
2022-10-06T12:00:13.309Z,20.10
2022-10-06T12:01:13.282Z,20.01
2022-10-06T12:02:13.335Z,19.97
2022-10-06T12:03:13.277Z,20.00
2022-10-06T12:04:13.204Z,19.80
2022-10-06T12:05:49.390Z,19.89
2022-10-06T12:06:13.123Z,19.98
2022-10-06T12:07:13.083Z,20.00
2022-10-06T12:08:13.052Z,20.27
2022-10-06T12:09:13.021Z,20.19
2022-10-06T12:10:12.996Z,20.13
2022-10-06T12:11:12.954Z,19.78
2022-10-06T12:12:12.936Z,19.65
2022-10-06T12:13:39.145Z,19.68
2022-10-06T12:15:37.922Z,19.85
2022-10-06T12:17:18.361Z,19.55
2022-10-06T12:18:12.727Z,19.52
2022-10-06T12:19:12.694Z,19.43
2022-10-06T12:20:12.666Z,19.35
2022-10-06T12:21:12.646Z,19.28
2022-10-06T12:22:12.599Z,19.16
2022-10-06T12:23:12.571Z,19.21
2022-10-06T12:25:12.506Z,18.97
2022-10-06T12:26:12.481Z,18.89
2022-10-06T12:27:12.441Z,18.93
2022-10-06T12:28:12.455Z,19.10
2022-10-06T12:29:12.373Z,19.02
2022-10-06T12:30:12.338Z,19.10
2022-10-06T12:31:17.842Z,19.07
2022-10-06T12:32:12.285Z,19.02
2022-10-06T12:33:12.248Z,19.17
2022-10-06T12:34:12.217Z,19.05
2022-10-06T12:35:12.173Z,18.94
2022-10-06T12:36:12.161Z,18.93
2022-10-06T12:37:12.117Z,19.07
2022-10-06T12:38:12.089Z,18.99
2022-10-06T12:39:12.042Z,18.99
2022-10-06T12:40:12.008Z,18.87
2022-10-06T12:41:11.976Z,18.84
2022-10-06T12:42:11.941Z,18.83
2022-10-06T12:43:11.981Z,18.72
2022-10-06T12:44:11.887Z,18.76
2022-10-06T12:45:11.843Z,18.84
2022-10-06T12:46:11.837Z,18.76
2022-10-06T12:47:11.779Z,18.69
2022-10-06T12:48:11.745Z,18.79
2022-10-06T12:49:11.724Z,18.82
2022-10-06T12:50:11.678Z,18.86
2022-10-06T12:51:11.646Z,18.89
2022-10-06T12:52:11.617Z,18.76
2022-10-06T12:53:11.578Z,18.69
2022-10-06T12:54:11.560Z,18.64
2022-10-06T12:55:11.507Z,18.65